SBOSBO BES / LFRB
Speedbird OnlineSpeedbird Online BES / LFRB

Brest Bretagne Airport
02:16 6°C

Location Brest, France
Latitude: 48.447898864746094
Longitude: -4.418540000915527
Altitude 99 Meter / 325 Feet
Distance 470 KM / 292 Miles
from London.
Time Zone UTC +1 hours (Europe/Paris)
Codes IATA: BES
ICAO: LFRB
Currency £1 equals EUR 1.14
METAR LFRB 270100Z AUTO 03008KT 9999 SCT027 BKN033 BKN042 06/03 Q1030 TEMPO 4000 -SHRA BKN014
TAF TAF LFRB 262300Z 2700/2806 03010KT 9999 SCT025 BKN040 PROB40 TEMPO 2700/2708 4000 -SHRA BKN014 PROB30 2708/2715 -SHRA BKN014
Weather As Of 27 Jan 2023 02:16
Description Broken clouds
Wind 17 km/h from North (10°)
Cloud Cover 75%
Precipitation Rain: none, Snow: none
Sunrise 08:53
Sunset 18:07
Rotations During the last 90 days there were
1 flights from FNC



Support Speedbird Online

© 2017-2023 Speedbird Online